Time;durP1;ratioP1;P1;durP2;ratioP2;P2;SDS_P1;SDS_P2;PMS_P1;PMS_P2;Temp;Humidity;BMP_temperature;BMP_pressure;BME280_temperature;BME280_humidity;BME280_pressure;Samples;Min_cycle;Max_cycle;Signal;HPM_P1;HPM_P2
2022/05/09 16:26:09;;;;;;;2.67;1.92;;;27.20;65.80;;;;;;5087282;27;20571;-67
2022/05/09 16:28:37;;;;;;;2.63;2.28;;;26.80;66.40;;;;;;5070275;28;20188;-67
2022/05/09 16:31:04;;;;;;;3.55;2.30;;;26.90;65.80;;;;;;5068948;28;20326;-69
2022/05/09 16:33:32;;;;;;;2.35;2.00;;;27.00;65.80;;;;;;5068935;28;20208;-68
2022/05/09 16:35:58;;;;;;;3.00;1.60;;;27.00;65.80;;;;;;5061750;28;20192;-69
2022/05/09 16:38:24;;;;;;;2.90;2.20;;;27.20;65.20;;;;;;5070594;28;20201;-69
2022/05/09 16:40:49;;;;;;;3.30;2.10;;;27.20;65.40;;;;;;5065888;28;20185;-68
2022/05/09 16:43:29;;;;;;;3.90;2.35;;;27.30;64.80;;;;;;5081404;28;20177;-69
2022/05/09 16:45:55;;;;;;;2.03;1.80;;;27.40;63.00;;;;;;5068173;28;20242;-69
2022/05/09 16:48:24;;;;;;;2.85;2.00;;;27.40;64.70;;;;;;5053837;28;20204;-69
2022/05/09 16:50:50;;;;;;;2.85;2.10;;;27.40;63.80;;;;;;5082935;28;20243;-69
2022/05/09 16:53:16;;;;;;;3.80;1.90;;;27.40;63.50;;;;;;5069535;28;20170;-69
2022/05/09 16:55:46;;;;;;;2.60;2.13;;;27.40;62.70;;;;;;5059657;28;20234;-68
2022/05/09 16:58:18;;;;;;;2.08;1.88;;;27.40;62.40;;;;;;5097481;28;20174;-69
2022/05/09 17:00:52;;;;;;;2.17;1.63;;;27.40;62.10;;;;;;5068423;28;20170;-69
2022/05/09 17:03:19;;;;;;;2.70;1.88;;;27.40;62.20;;;;;;5060353;28;20350;-69
2022/05/09 17:05:47;;;;;;;2.83;1.83;;;27.50;62.70;;;;;;5066190;28;20179;-69
2022/05/09 17:08:13;;;;;;;2.60;2.00;;;27.50;62.70;;;;;;5052213;28;20234;-68
2022/05/09 17:10:39;;;;;;;4.05;2.30;;;27.40;62.50;;;;;;5054459;28;20255;-69
2022/05/09 17:13:11;;;;;;;2.65;2.13;;;27.50;62.50;;;;;;5059333;28;20181;-68
2022/05/09 17:15:44;;;;;;;2.20;1.92;;;27.40;62.20;;;;;;5059597;28;20188;-68
2022/05/09 17:18:12;;;;;;;2.50;1.85;;;27.40;62.80;;;;;;5050867;28;20181;-68
2022/05/09 17:20:40;;;;;;;3.35;1.98;;;27.40;62.70;;;;;;5056382;28;20264;-67
2022/05/09 17:23:06;;;;;;;5.47;2.10;;;27.40;62.70;;;;;;5049877;28;20217;-68
2022/05/09 17:25:45;;;;;;;3.65;1.85;;;27.40;62.10;;;;;;5076806;28;20201;-68
2022/05/09 17:28:21;;;;;;;1.88;1.77;;;27.30;60.90;;;;;;5065995;28;20169;-68
2022/05/09 17:30:49;;;;;;;1.90;1.70;;;27.30;60.40;;;;;;5060827;28;20172;-67
2022/05/09 17:33:17;;;;;;;2.40;1.70;;;27.20;60.90;;;;;;5076286;28;20194;-69
2022/05/09 17:38:29;;;;;;;2.70;1.90;;;27.10;60.80;;;;;;5041094;28;20171;-69
2022/05/09 17:40:59;;;;;;;2.60;2.20;;;27.00;60.70;;;;;;5052972;28;20231;-68
2022/05/09 17:43:28;;;;;;;3.15;1.90;;;26.90;60.60;;;;;;5043622;28;20193;-68
2022/05/09 17:45:53;;;;;;;2.75;2.10;;;26.90;61.10;;;;;;5035535;28;20247;-68
2022/05/09 17:48:20;;;;;;;3.72;1.90;;;26.80;61.40;;;;;;5043568;28;20173;-66
2022/05/09 17:50:46;;;;;;;2.53;1.83;;;26.70;61.40;;;;;;5042524;28;20236;-69
2022/05/09 17:53:14;;;;;;;2.63;2.00;;;26.70;61.80;;;;;;5051491;28;20186;-69
2022/05/09 17:55:48;;;;;;;3.38;2.50;;;26.60;61.70;;;;;;5048646;28;20367;-68
2022/05/09 17:58:18;;;;;;;2.30;2.08;;;26.60;61.60;;;;;;5068741;28;20193;-67
2022/05/09 18:00:46;;;;;;;2.70;2.00;;;26.60;62.30;;;;;;5053458;28;20212;-68
2022/05/09 18:03:12;;;;;;;3.88;2.58;;;26.60;62.50;;;;;;5044625;28;20174;-66
2022/05/09 18:05:40;;;;;;;4.45;3.45;;;26.60;63.30;;;;;;5047082;28;20193;-68
2022/05/09 18:08:07;;;;;;;3.20;2.90;;;26.60;62.80;;;;;;5072427;28;20304;-67
2022/05/09 18:10:40;;;;;;;2.80;2.45;;;26.60;62.90;;;;;;5038612;28;20234;-65
2022/05/09 18:13:08;;;;;;;2.25;2.05;;;26.60;62.30;;;;;;5056121;28;20177;-69
2022/05/09 18:15:43;;;;;;;2.05;1.85;;;26.60;62.50;;;;;;5054863;28;20205;-69
2022/05/09 18:18:23;;;;;;;2.45;1.92;;;26.60;62.30;;;;;;5054494;28;20187;-69
2022/05/09 18:20:50;;;;;;;3.33;2.00;;;26.50;62.50;;;;;;5045365;28;20198;-67
2022/05/09 18:23:16;;;;;;;5.05;2.00;;;26.50;62.50;;;;;;5050218;28;20201;-68
2022/05/09 18:25:46;;;;;;;3.53;1.90;;;26.50;62.60;;;;;;5034091;28;20209;-68
2022/05/09 18:28:17;;;;;;;2.42;1.75;;;26.50;62.70;;;;;;5050818;28;20257;-68
2022/05/09 18:30:44;;;;;;;4.63;2.10;;;26.40;62.80;;;;;;5054867;28;20177;-68
2022/05/09 18:33:16;;;;;;;2.92;2.10;;;26.40;62.90;;;;;;5054340;28;20205;-68
2022/05/09 18:35:50;;;;;;;2.47;1.83;;;26.40;62.90;;;;;;5065933;28;20261;-70
2022/05/09 18:38:32;;;;;;;3.10;2.60;;;26.30;62.80;;;;;;5040199;28;20169;-69
2022/05/09 18:41:14;;;;;;;3.65;2.83;;;26.30;62.50;;;;;;5036056;28;20301;-70
2022/05/09 18:43:43;;;;;;;2.47;2.28;;;26.20;62.20;;;;;;5042766;28;20254;-68
2022/05/09 18:46:11;;;;;;;2.50;2.17;;;26.20;63.10;;;;;;5046061;28;20193;-70
2022/05/09 18:48:42;;;;;;;2.85;2.47;;;26.10;62.70;;;;;;5037837;28;20174;-70
2022/05/09 18:54:01;;;;;;;2.60;2.17;;;26.00;62.50;;;;;;5038862;28;20228;-70
2022/05/09 18:56:26;;;;;;;4.03;2.50;;;25.90;62.50;;;;;;5040934;28;20227;-70
2022/05/09 18:58:54;;;;;;;3.22;2.58;;;25.90;63.00;;;;;;5036147;28;20174;-69
2022/05/09 19:01:22;;;;;;;4.20;2.60;;;25.80;62.90;;;;;;5039391;28;20247;-70
2022/05/09 19:03:48;;;;;;;2.53;2.28;;;25.70;63.10;;;;;;5049684;28;20288;-70
2022/05/09 19:06:18;;;;;;;2.92;2.45;;;25.60;63.30;;;;;;5053462;28;20216;-72
2022/05/09 19:08:45;;;;;;;2.72;2.20;;;25.50;63.30;;;;;;5075878;28;20245;-69
2022/05/09 19:11:19;;;;;;;3.65;2.20;;;25.50;63.40;;;;;;5051531;28;20174;-70
2022/05/09 19:13:48;;;;;;;3.60;2.33;;;25.40;63.30;;;;;;5042617;28;20227;-69
2022/05/09 19:16:22;;;;;;;2.45;2.00;;;25.20;63.40;;;;;;5085557;28;20260;-70
2022/05/09 19:18:50;;;;;;;3.08;2.25;;;25.20;63.70;;;;;;5035437;28;20201;-69
2022/05/09 19:21:18;;;;;;;7.90;5.85;;;25.10;64.40;;;;;;5034018;28;20174;-70
2022/05/09 19:23:44;;;;;;;8.43;5.93;;;25.00;64.10;;;;;;5060838;28;20173;-70
2022/05/09 19:26:12;;;;;;;5.40;4.45;;;24.90;64.30;;;;;;5033486;28;20256;-70
2022/05/09 19:28:44;;;;;;;4.55;3.40;;;24.80;64.40;;;;;;5053190;28;20169;-70
2022/05/09 19:31:13;;;;;;;3.50;2.78;;;24.70;64.70;;;;;;5020078;28;20170;-69
2022/05/09 19:33:45;;;;;;;4.07;2.47;;;24.60;64.90;;;;;;5040954;28;20177;-68
2022/05/09 19:36:11;;;;;;;2.90;2.60;;;24.50;65.30;;;;;;5039904;28;20174;-69
2022/05/09 19:38:37;;;;;;;3.30;2.40;;;24.40;65.40;;;;;;5068759;28;20205;-70
2022/05/09 19:41:12;;;;;;;2.50;2.10;;;24.30;65.60;;;;;;5051549;28;20197;-69
2022/05/09 19:43:40;;;;;;;4.55;3.42;;;24.20;66.00;;;;;;5057953;28;20195;-70
2022/05/09 19:46:11;;;;;;;6.05;4.72;;;24.10;65.90;;;;;;5052414;28;20385;-70
2022/05/09 19:48:41;;;;;;;18.88;15.57;;;24.00;66.10;;;;;;5053022;28;20170;-69
2022/05/09 19:51:10;;;;;;;8.70;6.95;;;23.90;66.20;;;;;;5054581;28;20193;-70
2022/05/09 19:56:22;;;;;;;7.68;4.30;;;23.70;66.70;;;;;;5048014;28;20239;-70
2022/05/09 19:58:47;;;;;;;5.03;3.90;;;23.60;66.90;;;;;;5033752;28;20304;-70
2022/05/09 20:01:13;;;;;;;4.00;3.30;;;23.60;67.50;;;;;;5043053;28;20181;-70
2022/05/09 20:03:43;;;;;;;5.97;3.10;;;23.40;67.80;;;;;;5074573;28;20252;-70
2022/05/09 20:06:12;;;;;;;5.28;3.35;;;23.40;68.20;;;;;;5078371;28;20400;-69
2022/05/09 20:08:39;;;;;;;2.95;2.65;;;23.30;68.40;;;;;;5047180;28;20182;-70
2022/05/09 20:11:07;;;;;;;4.05;3.22;;;23.30;68.80;;;;;;5058182;28;20201;-69
2022/05/09 20:13:41;;;;;;;5.18;3.67;;;23.20;69.80;;;;;;5083204;28;20207;-69
2022/05/09 20:16:09;;;;;;;7.53;3.60;;;23.10;69.30;;;;;;5033243;28;20169;-69
2022/05/09 20:18:35;;;;;;;4.75;3.40;;;23.10;69.40;;;;;;5074027;28;20193;-69
2022/05/09 20:21:03;;;;;;;4.30;3.50;;;23.10;69.90;;;;;;5038684;28;20197;-70
2022/05/09 20:23:29;;;;;;;4.57;2.88;;;23.00;69.90;;;;;;5050797;28;20329;-68
2022/05/09 20:31:26;;;;;;;3.38;2.88;;;22.90;71.10;;;;;;5038091;28;20263;-68
2022/05/09 20:33:54;;;;;;;3.97;2.95;;;22.90;71.20;;;;;;5047182;28;20185;-68
2022/05/09 20:36:22;;;;;;;4.22;2.85;;;22.90;71.50;;;;;;5061333;28;20205;-68
2022/05/09 20:38:50;;;;;;;4.55;3.20;;;22.80;71.80;;;;;;5048263;28;20216;-68
2022/05/09 20:41:16;;;;;;;3.10;2.53;;;22.80;72.20;;;;;;5034646;28;20184;-67
2022/05/09 20:43:51;;;;;;;2.65;2.45;;;22.70;72.10;;;;;;5069444;28;20178;-65
2022/05/09 20:46:17;;;;;;;2.72;2.53;;;22.70;72.70;;;;;;5038297;28;20180;-69
2022/05/09 20:48:44;;;;;;;3.63;2.72;;;22.70;72.50;;;;;;5085532;28;20189;-70
2022/05/09 20:51:10;;;;;;;3.17;2.67;;;22.60;72.60;;;;;;5053159;28;20173;-70
2022/05/09 20:53:38;;;;;;;3.78;2.60;;;22.60;72.70;;;;;;5046566;28;20197;-70
2022/05/09 20:56:05;;;;;;;4.03;2.80;;;22.50;72.80;;;;;;5037650;28;20202;-70
2022/05/09 20:58:32;;;;;;;3.45;2.53;;;22.50;73.00;;;;;;5085586;28;20169;-70
2022/05/09 21:01:02;;;;;;;2.80;2.50;;;22.40;72.90;;;;;;5043245;28;20170;-68
2022/05/09 21:03:30;;;;;;;4.07;3.10;;;22.40;73.10;;;;;;5050816;28;20196;-68
2022/05/09 21:05:56;;;;;;;3.75;2.80;;;22.40;73.00;;;;;;5051833;28;20174;-69
2022/05/09 21:08:25;;;;;;;4.38;2.88;;;22.30;73.80;;;;;;5052023;28;20262;-69
2022/05/09 21:10:54;;;;;;;3.63;2.55;;;22.20;73.00;;;;;;5051701;28;20165;-69
2022/05/09 21:13:22;;;;;;;3.85;2.33;;;22.20;73.00;;;;;;5081426;28;20166;-69
2022/05/09 21:15:51;;;;;;;2.70;2.42;;;22.20;73.00;;;;;;5055397;28;20166;-70
2022/05/09 21:18:16;;;;;;;2.90;2.60;;;22.10;73.10;;;;;;5055757;28;20173;-67
2022/05/09 21:20:43;;;;;;;3.35;2.60;;;22.10;73.30;;;;;;5037774;28;20236;-70
2022/05/09 21:23:10;;;;;;;3.65;2.65;;;22.10;73.50;;;;;;5075028;28;20219;-69
2022/05/09 21:25:42;;;;;;;3.58;3.03;;;22.00;74.10;;;;;;5043228;28;20198;-69
2022/05/09 21:28:09;;;;;;;3.28;2.38;;;22.00;73.70;;;;;;5050613;28;20308;-70
2022/05/09 21:30:35;;;;;;;3.17;2.40;;;22.00;73.80;;;;;;5046733;28;20169;-69
2022/05/09 21:33:07;;;;;;;3.58;2.30;;;21.90;73.90;;;;;;5055616;28;20264;-69
2022/05/09 21:35:37;;;;;;;2.50;2.13;;;21.80;74.40;;;;;;5047315;28;20184;-70
2022/05/09 21:38:03;;;;;;;3.25;2.60;;;21.80;74.50;;;;;;5047906;28;20190;-69
2022/05/09 21:43:15;;;;;;;3.00;2.60;;;21.60;74.70;;;;;;5043184;28;20188;-70
2022/05/09 21:45:43;;;;;;;4.15;2.60;;;21.60;75.10;;;;;;5047587;28;20205;-69
2022/05/09 21:48:09;;;;;;;3.80;2.78;;;21.50;75.50;;;;;;5065929;28;20208;-70
2022/05/09 21:50:35;;;;;;;3.42;2.65;;;21.50;75.50;;;;;;5044296;28;20244;-70
2022/05/09 21:53:03;;;;;;;4.38;3.17;;;21.40;75.70;;;;;;5052093;28;20253;-70
2022/05/09 21:55:29;;;;;;;4.97;3.10;;;21.40;76.00;;;;;;5050142;28;20238;-69
2022/05/09 21:57:58;;;;;;;4.63;2.95;;;21.30;76.20;;;;;;5072526;28;20185;-68
2022/05/09 22:00:26;;;;;;;3.08;2.78;;;21.20;76.80;;;;;;5047976;28;20506;-69
2022/05/09 22:02:54;;;;;;;3.10;2.75;;;21.10;76.70;;;;;;5041754;28;20212;-69
2022/05/09 22:05:22;;;;;;;3.78;2.63;;;21.10;77.00;;;;;;5039222;28;20213;-70
2022/05/09 22:07:50;;;;;;;2.97;2.67;;;21.00;77.30;;;;;;5035682;28;20194;-69
2022/05/09 22:10:16;;;;;;;2.95;2.50;;;20.90;77.40;;;;;;5044698;28;20198;-67
2022/05/09 22:12:44;;;;;;;3.25;2.80;;;20.90;77.80;;;;;;5047413;28;20192;-67
2022/05/09 22:15:13;;;;;;;3.53;2.67;;;20.80;78.10;;;;;;5063818;28;20241;-69
2022/05/09 22:17:38;;;;;;;3.25;2.72;;;20.70;78.50;;;;;;5068579;28;20182;-69
2022/05/09 22:20:04;;;;;;;2.85;2.55;;;20.70;78.60;;;;;;5058480;28;20201;-67
2022/05/09 22:22:31;;;;;;;3.33;2.58;;;20.60;78.70;;;;;;5060752;28;20177;-68
2022/05/09 22:24:57;;;;;;;3.13;2.20;;;20.50;78.80;;;;;;5047638;28;20393;-67
2022/05/09 22:27:23;;;;;;;2.92;2.28;;;20.50;79.10;;;;;;5080116;28;20196;-67
2022/05/09 22:29:49;;;;;;;2.85;2.28;;;20.50;79.30;;;;;;5052781;28;20181;-69
2022/05/09 22:32:21;;;;;;;4.20;2.50;;;20.40;79.40;;;;;;5050578;28;20180;-69
2022/05/09 22:34:48;;;;;;;3.20;2.42;;;20.40;79.80;;;;;;5054807;28;20201;-70
2022/05/09 22:37:22;;;;;;;2.63;2.22;;;20.40;79.80;;;;;;5055531;28;20184;-70
2022/05/09 22:39:50;;;;;;;2.55;2.28;;;20.30;80.30;;;;;;5054427;28;20231;-69
2022/05/09 22:42:30;;;;;;;3.22;2.40;;;20.30;80.20;;;;;;5038700;28;20251;-70
2022/05/09 22:45:39;;;;;;;2.80;2.50;;;20.20;81.10;;;;;;5050997;28;20204;-69
2022/05/09 22:48:12;;;;;;;2.70;1.98;;;20.20;81.30;;;;;;5026310;28;20206;-68
2022/05/09 22:50:38;;;;;;;3.92;2.72;;;20.10;81.10;;;;;;5054101;28;20295;-70
2022/05/09 22:53:08;;;;;;;3.30;2.58;;;20.10;80.80;;;;;;5048521;28;20201;-69
2022/05/09 22:55:36;;;;;;;4.57;2.40;;;20.10;81.30;;;;;;5052119;28;20177;-68
2022/05/09 22:58:05;;;;;;;2.58;2.28;;;20.00;81.50;;;;;;5050407;28;20197;-68
2022/05/09 23:00:31;;;;;;;2.75;2.22;;;20.00;81.60;;;;;;5048581;28;20208;-69
2022/05/09 23:03:01;;;;;;;2.70;2.33;;;20.00;81.80;;;;;;5050856;28;20266;-69
2022/05/09 23:05:36;;;;;;;2.25;2.05;;;19.90;82.30;;;;;;5048987;28;20189;-67
2022/05/09 23:08:03;;;;;;;2.70;2.50;;;19.90;83.00;;;;;;5048674;28;20200;-68
2022/05/09 23:10:44;;;;;;;2.42;2.22;;;19.90;82.50;;;;;;5046808;28;20244;-68
2022/05/09 23:13:27;;;;;;;2.20;2.00;;;19.90;83.70;;;;;;5046654;28;20177;-68
2022/05/09 23:15:53;;;;;;;2.50;2.25;;;19.80;83.90;;;;;;5063257;28;20223;-68
2022/05/09 23:18:20;;;;;;;2.83;2.40;;;19.80;83.00;;;;;;5053749;28;20173;-68
2022/05/09 23:20:46;;;;;;;4.38;2.67;;;19.70;83.20;;;;;;5053202;28;20181;-69
2022/05/09 23:23:12;;;;;;;6.82;2.38;;;19.70;83.50;;;;;;5052217;28;20165;-69
2022/05/09 23:25:38;;;;;;;2.83;2.33;;;19.70;83.90;;;;;;5051085;28;20212;-68
2022/05/09 23:28:09;;;;;;;2.60;2.15;;;19.60;84.00;;;;;;5061381;28;20193;-68
2022/05/09 23:30:37;;;;;;;2.50;2.30;;;19.70;84.50;;;;;;5049892;28;20174;-71
2022/05/09 23:33:05;;;;;;;3.00;2.20;;;19.60;84.50;;;;;;5042997;28;20178;-71
2022/05/09 23:35:31;;;;;;;3.15;2.40;;;19.60;85.20;;;;;;5049876;28;20267;-71
2022/05/09 23:37:57;;;;;;;3.08;2.33;;;19.60;85.10;;;;;;5045791;28;20273;-71
2022/05/09 23:40:24;;;;;;;3.13;2.50;;;19.50;85.30;;;;;;5054813;28;20181;-71
2022/05/09 23:42:58;;;;;;;2.60;2.40;;;19.50;85.60;;;;;;5053141;28;20180;-71
2022/05/09 23:45:26;;;;;;;3.00;2.50;;;19.40;86.50;;;;;;5043007;28;20197;-71
2022/05/09 23:47:52;;;;;;;3.40;2.67;;;19.40;86.10;;;;;;5047290;28;20206;-71
2022/05/09 23:50:22;;;;;;;2.50;2.20;;;19.40;86.30;;;;;;5047346;28;20282;-70
2022/05/09 23:52:48;;;;;;;2.97;2.40;;;19.40;86.90;;;;;;5048806;28;20269;-71
2022/05/09 23:55:17;;;;;;;2.95;2.15;;;19.30;86.70;;;;;;5035640;28;20210;-71
2022/05/09 23:57:45;;;;;;;4.75;2.38;;;19.30;87.50;;;;;;5051889;28;20184;-71
